Time;durP1;ratioP1;P1;durP2;ratioP2;P2;SDS_P1;SDS_P2;PMS_P1;PMS_P2;Temp;Humidity;BMP_temperature;BMP_pressure;BME280_temperature;BME280_humidity;BME280_pressure;Samples;Min_cycle;Max_cycle;Signal;HPM_P1;HPM_P2
2022/03/25 00:00:05;;;;;;;40.83;25.20;;;10.80;51.90;;;;;;5000492;28;20125;-61
2022/03/25 00:02:31;;;;;;;41.95;24.77;;;10.80;52.10;;;;;;4992366;28;20034;-61
2022/03/25 00:04:57;;;;;;;41.63;24.15;;;10.70;52.20;;;;;;5001175;28;20110;-61
2022/03/25 00:07:22;;;;;;;42.53;25.75;;;10.70;52.40;;;;;;5003991;28;20465;-62
2022/03/25 00:09:48;;;;;;;43.08;24.15;;;10.70;52.40;;;;;;4992751;28;20117;-62
2022/03/25 00:12:13;;;;;;;41.55;25.30;;;10.70;52.60;;;;;;4993664;28;20033;-61
2022/03/25 00:14:39;;;;;;;36.72;22.70;;;10.70;52.70;;;;;;4999311;28;20034;-61
2022/03/25 00:17:05;;;;;;;41.00;24.98;;;10.60;52.30;;;;;;5000472;28;20477;-61
2022/03/25 00:19:30;;;;;;;46.67;27.08;;;10.60;52.40;;;;;;5008097;28;20046;-63
2022/03/25 00:21:55;;;;;;;42.25;25.17;;;10.60;52.60;;;;;;5001882;28;20049;-62
2022/03/25 00:24:23;;;;;;;47.80;26.42;;;10.60;53.00;;;;;;5005492;28;20026;-62
2022/03/25 00:26:48;;;;;;;48.15;27.88;;;10.60;53.20;;;;;;4992568;28;20352;-62
2022/03/25 00:29:15;;;;;;;39.60;24.02;;;10.60;53.10;;;;;;4992032;28;20064;-62
2022/03/25 00:31:41;;;;;;;36.58;22.48;;;10.50;53.30;;;;;;4992408;28;20073;-62
2022/03/25 00:34:08;;;;;;;44.65;24.13;;;10.50;53.40;;;;;;5005031;28;20117;-62
2022/03/25 00:36:52;;;;;;;38.20;22.45;;;10.40;53.60;;;;;;4992279;28;20088;-62
2022/03/25 00:39:20;;;;;;;42.25;25.23;;;10.40;53.60;;;;;;4999023;28;20489;-62
2022/03/25 00:42:05;;;;;;;39.75;22.13;;;10.40;54.00;;;;;;4991914;28;20500;-62
2022/03/25 00:44:32;;;;;;;39.40;22.45;;;10.40;54.20;;;;;;5007973;28;20034;-62
2022/03/25 00:47:16;;;;;;;37.10;23.30;;;10.40;54.10;;;;;;5011777;28;20155;-62
2022/03/25 00:49:42;;;;;;;40.22;23.58;;;10.30;53.80;;;;;;5009837;28;20368;-62
2022/03/25 00:52:08;;;;;;;38.72;23.45;;;10.30;54.20;;;;;;5011291;28;20076;-62
2022/03/25 00:54:36;;;;;;;40.40;23.65;;;10.30;54.50;;;;;;5010178;28;20045;-62
2022/03/25 00:57:02;;;;;;;40.05;24.15;;;10.20;54.60;;;;;;5011065;28;20109;-61
2022/03/25 00:59:28;;;;;;;35.28;21.80;;;10.20;54.30;;;;;;4996508;28;20034;-61
2022/03/25 01:01:53;;;;;;;38.70;23.40;;;10.20;54.50;;;;;;4991635;28;20030;-61
2022/03/25 01:04:19;;;;;;;44.22;24.20;;;10.20;54.80;;;;;;5005405;28;20030;-61
2022/03/25 01:06:45;;;;;;;37.83;24.10;;;10.10;55.50;;;;;;5001649;28;20042;-61
2022/03/25 01:09:10;;;;;;;39.08;24.30;;;10.10;55.00;;;;;;5004927;28;20073;-61
2022/03/25 01:11:36;;;;;;;41.30;24.23;;;10.10;55.20;;;;;;5009820;28;20525;-61
2022/03/25 01:14:03;;;;;;;43.47;23.52;;;10.10;55.40;;;;;;5005791;28;20026;-61
2022/03/25 01:16:28;;;;;;;42.10;24.30;;;10.10;55.40;;;;;;4992134;28;20105;-61
2022/03/25 01:18:54;;;;;;;42.45;24.45;;;10.00;55.60;;;;;;5005118;28;20146;-61
2022/03/25 01:21:19;;;;;;;43.00;26.33;;;10.00;55.60;;;;;;5006359;28;20572;-61
2022/03/25 01:23:45;;;;;;;41.72;23.88;;;10.00;55.40;;;;;;4999811;28;20030;-61
2022/03/25 01:26:12;;;;;;;43.85;24.27;;;10.00;55.60;;;;;;4996481;28;20117;-61
2022/03/25 01:28:38;;;;;;;41.97;25.38;;;9.90;55.20;;;;;;4999782;28;20034;-62
2022/03/25 01:31:04;;;;;;;43.63;25.40;;;9.90;55.30;;;;;;4999543;28;20037;-62
2022/03/25 01:33:30;;;;;;;48.25;25.90;;;9.90;55.50;;;;;;5002499;28;20025;-62
2022/03/25 01:35:56;;;;;;;42.80;24.38;;;9.90;55.50;;;;;;5005547;28;20073;-62
2022/03/25 01:38:23;;;;;;;47.95;27.27;;;9.80;55.60;;;;;;5008081;28;20045;-62
2022/03/25 01:40:48;;;;;;;47.67;23.55;;;9.80;55.70;;;;;;5005717;28;20022;-62
2022/03/25 01:43:14;;;;;;;41.47;23.85;;;9.80;55.60;;;;;;5000144;28;20485;-63
2022/03/25 01:45:40;;;;;;;45.08;26.30;;;9.80;55.60;;;;;;5006056;28;20035;-62
2022/03/25 01:48:11;;;;;;;40.63;23.35;;;9.80;55.80;;;;;;4999006;28;20026;-62
2022/03/25 01:50:38;;;;;;;45.28;24.73;;;9.80;56.20;;;;;;5007254;28;20030;-62
2022/03/25 01:53:28;;;;;;;41.33;25.38;;;9.80;56.10;;;;;;4999093;28;20528;-63
2022/03/25 01:55:56;;;;;;;51.00;25.80;;;9.80;56.20;;;;;;5001993;28;20035;-62
2022/03/25 01:58:23;;;;;;;45.75;25.60;;;9.70;56.00;;;;;;5000631;28;20111;-62
2022/03/25 02:00:49;;;;;;;42.53;24.50;;;9.70;56.30;;;;;;5003176;28;20023;-61
2022/03/25 02:03:16;;;;;;;45.55;25.15;;;9.70;56.30;;;;;;5000974;28;20612;-62
2022/03/25 02:05:43;;;;;;;40.28;24.00;;;9.70;56.60;;;;;;5005723;28;20497;-62
2022/03/25 02:08:09;;;;;;;45.60;24.35;;;9.70;56.80;;;;;;5013054;28;20033;-62
2022/03/25 02:10:35;;;;;;;40.40;23.23;;;9.60;56.90;;;;;;5006624;28;20117;-61
2022/03/25 02:13:01;;;;;;;40.10;23.77;;;9.60;57.60;;;;;;4997799;28;20067;-62
2022/03/25 02:15:31;;;;;;;43.45;25.27;;;9.60;57.10;;;;;;5013736;28;20026;-62
2022/03/25 02:17:57;;;;;;;41.80;24.63;;;9.60;57.50;;;;;;5005140;28;20038;-62
2022/03/25 02:20:22;;;;;;;45.20;25.13;;;9.60;57.60;;;;;;4992791;28;20033;-61
2022/03/25 02:22:48;;;;;;;43.20;24.05;;;9.50;57.30;;;;;;4995402;28;20508;-63
2022/03/25 02:25:18;;;;;;;45.97;25.23;;;9.60;57.20;;;;;;5012375;28;20037;-62
2022/03/25 02:27:47;;;;;;;42.33;24.15;;;9.60;57.30;;;;;;5010281;28;20022;-62
2022/03/25 02:30:12;;;;;;;40.85;23.00;;;9.60;57.60;;;;;;5013980;28;20061;-62
2022/03/25 02:32:39;;;;;;;43.15;23.20;;;9.50;57.60;;;;;;4996514;28;20449;-61
2022/03/25 02:35:06;;;;;;;42.28;23.08;;;9.50;57.70;;;;;;5006211;28;20034;-62
2022/03/25 02:37:31;;;;;;;42.60;24.80;;;9.50;57.90;;;;;;5011559;28;20125;-62
2022/03/25 02:39:57;;;;;;;44.83;23.20;;;9.50;58.00;;;;;;4998208;28;20030;-62
2022/03/25 02:42:23;;;;;;;45.38;23.42;;;9.50;58.00;;;;;;4992452;28;20041;-62
2022/03/25 02:44:49;;;;;;;41.78;24.25;;;9.40;58.30;;;;;;5000741;28;20033;-62
2022/03/25 02:47:16;;;;;;;46.83;24.30;;;9.50;58.30;;;;;;4999999;28;20117;-62
2022/03/25 02:49:41;;;;;;;44.10;24.45;;;9.50;58.50;;;;;;4994075;28;20031;-62
2022/03/25 02:52:07;;;;;;;46.47;24.15;;;9.40;58.70;;;;;;4993348;28;20045;-62
2022/03/25 02:54:32;;;;;;;45.25;24.80;;;9.50;58.90;;;;;;4999622;28;20029;-63
2022/03/25 02:56:58;;;;;;;46.05;24.58;;;9.50;59.00;;;;;;5012729;28;20018;-62
2022/03/25 02:59:25;;;;;;;45.08;24.20;;;9.50;59.20;;;;;;5009607;28;20049;-62
2022/03/25 03:01:51;;;;;;;46.50;24.40;;;9.50;59.20;;;;;;5010696;28;20084;-62
2022/03/25 03:04:17;;;;;;;41.58;23.58;;;9.50;59.30;;;;;;4999580;28;20033;-62
2022/03/25 03:06:43;;;;;;;43.80;23.73;;;9.50;59.40;;;;;;5012077;28;20101;-61
2022/03/25 03:09:09;;;;;;;49.05;25.73;;;9.50;59.40;;;;;;5011121;28;20124;-62
2022/03/25 03:11:36;;;;;;;44.22;25.98;;;9.40;59.40;;;;;;5012144;28;20106;-61
2022/03/25 03:14:02;;;;;;;47.58;25.58;;;9.50;59.60;;;;;;4993760;28;20062;-61
2022/03/25 03:16:27;;;;;;;42.70;24.15;;;9.50;59.80;;;;;;5012901;28;20112;-62
2022/03/25 03:18:53;;;;;;;39.38;22.65;;;9.50;59.90;;;;;;4993514;28;20168;-62
2022/03/25 03:21:24;;;;;;;39.72;24.17;;;9.50;59.90;;;;;;5012767;28;20075;-62
2022/03/25 03:23:51;;;;;;;44.38;25.27;;;9.50;60.00;;;;;;4994688;28;20433;-62
2022/03/25 03:26:17;;;;;;;39.78;23.67;;;9.50;60.20;;;;;;4996716;28;20406;-62
2022/03/25 03:28:44;;;;;;;42.83;23.88;;;9.50;60.20;;;;;;4993419;28;20034;-62
2022/03/25 03:31:09;;;;;;;39.95;23.42;;;9.50;60.40;;;;;;4996498;28;20482;-62
2022/03/25 03:33:35;;;;;;;42.38;22.65;;;9.50;60.40;;;;;;4993136;28;20160;-62
2022/03/25 03:36:01;;;;;;;42.60;22.80;;;9.50;60.50;;;;;;4994961;28;20105;-62
2022/03/25 03:38:26;;;;;;;42.50;24.20;;;9.50;60.60;;;;;;5000528;28;20083;-62
2022/03/25 03:40:52;;;;;;;37.20;23.05;;;9.50;60.70;;;;;;4999276;28;20459;-62
2022/03/25 03:43:17;;;;;;;44.47;23.27;;;9.50;60.70;;;;;;4992953;28;20042;-62
2022/03/25 03:45:43;;;;;;;41.63;22.70;;;9.50;60.50;;;;;;4997166;28;20022;-62
2022/03/25 03:48:08;;;;;;;39.75;22.38;;;9.50;60.60;;;;;;4992837;28;20542;-62
2022/03/25 03:50:34;;;;;;;39.92;22.90;;;9.40;60.50;;;;;;5001208;28;20022;-62
2022/03/25 03:52:59;;;;;;;37.65;21.30;;;9.40;60.50;;;;;;5006125;28;20145;-62
2022/03/25 03:55:25;;;;;;;36.78;22.05;;;9.40;60.70;;;;;;5003842;28;20043;-62
2022/03/25 03:57:50;;;;;;;37.63;23.02;;;9.40;60.80;;;;;;5000989;28;20049;-62
2022/03/25 04:00:16;;;;;;;37.50;21.92;;;9.30;60.80;;;;;;4992173;28;20019;-62
2022/03/25 04:02:44;;;;;;;45.17;24.17;;;9.30;60.80;;;;;;4998371;28;20029;-62
2022/03/25 04:05:10;;;;;;;37.42;21.38;;;9.30;61.10;;;;;;5001653;28;20032;-62
2022/03/25 04:07:40;;;;;;;42.45;22.65;;;9.30;61.20;;;;;;5011516;28;20137;-62
2022/03/25 04:10:06;;;;;;;38.63;21.35;;;9.30;61.20;;;;;;5010132;28;20380;-63
2022/03/25 04:12:32;;;;;;;42.35;22.05;;;9.30;61.20;;;;;;5011636;28;20026;-63
2022/03/25 04:14:57;;;;;;;41.67;22.98;;;9.20;61.30;;;;;;5000070;28;20049;-62
2022/03/25 04:17:25;;;;;;;43.15;22.38;;;9.20;61.40;;;;;;5011860;28;20028;-63
2022/03/25 04:19:51;;;;;;;42.38;23.13;;;9.20;61.60;;;;;;5010736;28;20030;-62
2022/03/25 04:22:17;;;;;;;40.65;22.38;;;9.20;61.80;;;;;;5010263;28;20076;-63
2022/03/25 04:24:42;;;;;;;44.10;22.15;;;9.20;61.90;;;;;;5000290;28;20026;-62
2022/03/25 04:27:09;;;;;;;38.65;21.67;;;9.20;62.00;;;;;;5011695;28;20037;-62
2022/03/25 04:29:34;;;;;;;38.13;22.40;;;9.10;61.80;;;;;;5000623;28;20030;-62
2022/03/25 04:32:00;;;;;;;36.60;20.83;;;9.20;62.00;;;;;;5000567;28;20048;-62
2022/03/25 04:34:25;;;;;;;37.17;21.75;;;9.10;61.90;;;;;;4998288;28;20031;-62
2022/03/25 04:36:51;;;;;;;39.92;22.05;;;9.10;62.00;;;;;;4992717;28;20038;-62
2022/03/25 04:39:16;;;;;;;42.00;22.75;;;9.10;62.30;;;;;;5006716;28;20172;-62
2022/03/25 04:41:42;;;;;;;42.95;24.05;;;9.10;62.40;;;;;;5007831;28;20023;-62
2022/03/25 04:44:07;;;;;;;36.80;20.38;;;9.00;62.40;;;;;;4991899;28;20117;-62
2022/03/25 04:46:34;;;;;;;33.90;19.80;;;9.00;62.50;;;;;;4997159;28;20028;-62
2022/03/25 04:49:00;;;;;;;41.13;21.60;;;9.00;62.50;;;;;;4991806;28;20060;-62
2022/03/25 04:51:26;;;;;;;39.08;21.05;;;9.00;62.70;;;;;;4992625;28;20589;-62
2022/03/25 04:53:51;;;;;;;35.55;21.77;;;9.00;62.80;;;;;;4992127;28;20030;-62
2022/03/25 04:56:18;;;;;;;39.00;21.85;;;9.00;62.90;;;;;;5000870;28;20038;-62
2022/03/25 04:58:44;;;;;;;39.30;21.10;;;9.00;63.00;;;;;;5011250;28;20042;-62
2022/03/25 05:01:09;;;;;;;39.17;22.45;;;9.00;63.10;;;;;;4999698;28;20540;-62
2022/03/25 05:03:35;;;;;;;40.33;22.52;;;9.00;63.10;;;;;;5011120;28;20436;-62
2022/03/25 05:06:00;;;;;;;37.20;20.30;;;9.00;63.30;;;;;;5000756;28;20120;-62
2022/03/25 05:08:26;;;;;;;35.95;21.20;;;9.00;63.20;;;;;;4995486;28;20065;-62
2022/03/25 05:10:52;;;;;;;38.22;21.35;;;9.00;63.20;;;;;;5004554;28;20068;-62
2022/03/25 05:13:18;;;;;;;34.05;19.70;;;9.00;63.20;;;;;;5007834;28;20065;-62
2022/03/25 05:15:43;;;;;;;39.72;19.75;;;9.10;63.10;;;;;;4995612;28;20027;-62
2022/03/25 05:18:09;;;;;;;36.15;19.35;;;9.00;63.10;;;;;;5008981;28;20042;-62
2022/03/25 05:20:35;;;;;;;40.20;21.27;;;9.00;63.10;;;;;;4995441;28;20023;-62
2022/03/25 05:23:00;;;;;;;39.33;21.58;;;9.00;63.00;;;;;;5010183;28;20037;-62
2022/03/25 05:25:26;;;;;;;34.65;19.63;;;9.10;63.20;;;;;;5015140;28;20072;-63
2022/03/25 05:28:00;;;;;;;35.58;19.85;;;9.00;63.30;;;;;;5010563;28;20026;-63
2022/03/25 05:30:27;;;;;;;35.30;19.42;;;9.00;63.20;;;;;;5000405;28;20041;-63
2022/03/25 05:32:54;;;;;;;36.33;20.83;;;9.00;63.10;;;;;;5009725;28;20382;-62
2022/03/25 05:35:21;;;;;;;34.72;19.10;;;9.00;63.20;;;;;;4999256;28;20117;-62
2022/03/25 05:37:47;;;;;;;36.30;19.67;;;9.00;63.30;;;;;;5004744;28;20041;-64
2022/03/25 05:40:13;;;;;;;28.63;17.83;;;9.10;63.40;;;;;;5014627;28;20036;-64
2022/03/25 05:42:39;;;;;;;36.20;19.70;;;9.10;63.10;;;;;;4998508;28;20019;-64
2022/03/25 05:45:06;;;;;;;32.88;18.95;;;9.10;63.20;;;;;;5013770;28;20092;-63
2022/03/25 05:47:34;;;;;;;32.53;19.38;;;9.10;62.90;;;;;;4999529;28;20030;-63
2022/03/25 05:49:59;;;;;;;32.17;18.27;;;9.10;62.90;;;;;;5011598;28;20032;-63
2022/03/25 05:52:25;;;;;;;34.28;18.58;;;9.20;63.40;;;;;;5011889;28;20112;-62
2022/03/25 05:54:51;;;;;;;32.20;18.67;;;9.20;62.90;;;;;;4997695;28;20030;-62
2022/03/25 05:57:16;;;;;;;35.42;18.70;;;9.20;63.00;;;;;;4998185;28;20049;-63
2022/03/25 05:59:43;;;;;;;35.63;19.83;;;9.30;63.10;;;;;;5013627;28;20018;-63
2022/03/25 06:02:08;;;;;;;33.40;17.83;;;9.30;63.10;;;;;;5006416;28;20037;-63
2022/03/25 06:04:34;;;;;;;33.67;18.73;;;9.30;63.10;;;;;;5006166;28;20030;-63
2022/03/25 06:06:59;;;;;;;33.97;18.50;;;9.40;63.00;;;;;;5009828;28;20412;-64
2022/03/25 06:09:25;;;;;;;32.97;17.63;;;9.40;62.70;;;;;;5014205;28;20512;-62
2022/03/25 06:11:51;;;;;;;33.65;19.33;;;9.40;62.60;;;;;;5001602;28;20381;-62
2022/03/25 06:14:17;;;;;;;33.97;19.30;;;9.50;62.50;;;;;;5013845;28;20133;-62
2022/03/25 06:16:42;;;;;;;32.58;17.83;;;9.50;62.60;;;;;;5008929;28;20143;-62
2022/03/25 06:19:08;;;;;;;34.72;17.95;;;9.60;62.70;;;;;;4996454;28;20041;-61
2022/03/25 06:21:34;;;;;;;32.47;19.30;;;9.60;62.70;;;;;;5007035;28;20489;-62
2022/03/25 06:23:59;;;;;;;39.58;18.75;;;9.60;62.60;;;;;;4994186;28;20038;-63
2022/03/25 06:26:25;;;;;;;30.83;16.77;;;9.70;62.70;;;;;;4998579;28;20057;-63
2022/03/25 06:28:51;;;;;;;32.47;18.48;;;9.70;62.70;;;;;;5003439;28;20026;-63
2022/03/25 06:31:16;;;;;;;34.85;18.75;;;9.80;62.40;;;;;;4997406;28;20030;-63
2022/03/25 06:33:42;;;;;;;31.92;17.98;;;9.80;62.10;;;;;;5010057;28;20026;-63
2022/03/25 06:36:09;;;;;;;33.50;18.30;;;9.90;62.00;;;;;;5000392;28;20456;-63
2022/03/25 06:38:35;;;;;;;32.55;18.30;;;9.90;61.70;;;;;;5014163;28;20162;-63
2022/03/25 06:41:01;;;;;;;35.22;18.77;;;10.00;61.80;;;;;;5010680;28;20640;-63
2022/03/25 06:43:27;;;;;;;32.38;17.90;;;10.00;61.80;;;;;;5019171;28;20030;-63
2022/03/25 06:45:53;;;;;;;32.90;18.15;;;10.00;61.70;;;;;;5007281;28;20395;-63
2022/03/25 06:48:18;;;;;;;41.47;18.08;;;10.20;61.60;;;;;;4996250;28;20026;-63
2022/03/25 06:50:44;;;;;;;32.08;17.13;;;10.20;61.30;;;;;;5003376;28;20169;-63
2022/03/25 06:53:10;;;;;;;30.50;17.08;;;10.30;61.20;;;;;;4994043;28;20449;-63
2022/03/25 06:55:36;;;;;;;31.35;17.55;;;10.30;61.00;;;;;;5003747;28;20022;-63
2022/03/25 06:58:02;;;;;;;34.20;18.65;;;10.40;61.00;;;;;;5008375;28;20041;-63
2022/03/25 07:00:28;;;;;;;32.45;17.95;;;10.50;60.90;;;;;;5012245;28;20160;-63
2022/03/25 07:02:54;;;;;;;32.35;18.08;;;10.50;60.80;;;;;;5009007;28;20136;-64
2022/03/25 07:05:21;;;;;;;30.20;16.65;;;10.60;60.50;;;;;;5007381;28;20022;-63
2022/03/25 07:07:47;;;;;;;30.05;16.08;;;10.60;60.20;;;;;;4995176;28;20081;-64
2022/03/25 07:10:14;;;;;;;35.80;16.65;;;10.70;60.00;;;;;;5013549;28;20035;-63
2022/03/25 07:12:43;;;;;;;30.33;16.42;;;10.80;59.70;;;;;;5000432;28;20156;-63
2022/03/25 07:15:09;;;;;;;32.90;17.60;;;10.90;59.40;;;;;;4999556;28;20034;-64
2022/03/25 07:17:37;;;;;;;33.22;16.88;;;10.90;59.20;;;;;;4995763;28;20043;-64
2022/03/25 07:20:04;;;;;;;36.28;17.80;;;11.00;59.10;;;;;;4999424;28;20041;-63
2022/03/25 07:22:29;;;;;;;33.75;16.88;;;11.10;58.90;;;;;;5004119;28;20153;-64
2022/03/25 07:24:55;;;;;;;33.00;17.17;;;11.10;58.60;;;;;;5008337;28;20032;-63
2022/03/25 07:27:21;;;;;;;42.85;18.48;;;11.20;58.20;;;;;;4998413;28;20030;-63
2022/03/25 07:29:46;;;;;;;32.63;17.38;;;11.30;58.00;;;;;;4998831;28;20489;-63
2022/03/25 07:32:12;;;;;;;36.42;19.17;;;11.30;57.90;;;;;;5001978;28;20029;-63
2022/03/25 07:34:40;;;;;;;29.50;16.10;;;11.30;57.70;;;;;;4992383;28;20445;-63
2022/03/25 07:37:06;;;;;;;32.75;17.13;;;11.40;57.80;;;;;;4998429;28;20068;-63
2022/03/25 07:39:32;;;;;;;34.30;16.27;;;11.50;57.50;;;;;;5014745;28;20149;-62
2022/03/25 07:41:57;;;;;;;38.60;18.13;;;11.60;57.60;;;;;;5007391;28;20068;-62
2022/03/25 07:44:23;;;;;;;37.60;17.23;;;11.60;57.30;;;;;;5004047;28;20037;-63
2022/03/25 07:46:49;;;;;;;32.80;17.60;;;11.70;57.30;;;;;;5004825;28;20021;-63
2022/03/25 07:49:15;;;;;;;34.38;18.45;;;11.70;57.20;;;;;;5010610;28;20054;-63
2022/03/25 07:51:41;;;;;;;36.75;19.38;;;11.90;57.20;;;;;;5001709;28;20025;-63
2022/03/25 07:54:06;;;;;;;36.78;17.50;;;11.90;57.00;;;;;;5006533;28;20034;-63
2022/03/25 07:56:32;;;;;;;34.42;18.58;;;12.00;57.00;;;;;;5002619;28;20037;-64
2022/03/25 07:58:59;;;;;;;33.38;16.70;;;12.00;56.80;;;;;;4994614;28;20033;-63
2022/03/25 08:01:25;;;;;;;37.15;18.80;;;12.10;56.80;;;;;;5010596;28;20434;-63
2022/03/25 08:03:50;;;;;;;34.70;18.60;;;12.20;56.70;;;;;;5007012;28;20120;-63
2022/03/25 08:06:16;;;;;;;33.20;18.20;;;12.20;56.50;;;;;;5026247;28;20408;-62
2022/03/25 08:08:41;;;;;;;37.22;19.05;;;12.30;56.60;;;;;;5000195;28;20269;-63
2022/03/25 08:11:08;;;;;;;34.80;19.20;;;12.30;56.10;;;;;;4995777;28;20040;-63
2022/03/25 08:13:34;;;;;;;33.90;17.90;;;12.40;56.20;;;;;;5005806;28;20030;-63
2022/03/25 08:16:00;;;;;;;35.92;20.50;;;12.40;56.10;;;;;;4993349;28;20042;-63
2022/03/25 08:18:26;;;;;;;34.25;19.27;;;12.50;55.90;;;;;;5008836;28;20084;-64
2022/03/25 08:20:53;;;;;;;37.78;19.75;;;12.60;55.70;;;;;;5006806;28;20470;-63
2022/03/25 08:28:51;;;;;;;36.30;20.10;;;12.80;55.50;;;;;;5004906;28;20030;-63
2022/03/25 08:31:17;;;;;;;35.13;17.92;;;12.80;55.40;;;;;;4994760;28;20117;-63
2022/03/25 08:33:44;;;;;;;43.08;22.10;;;12.90;55.30;;;;;;4998800;28;20038;-63
2022/03/25 08:36:09;;;;;;;39.47;18.80;;;13.00;54.80;;;;;;5007200;28;20113;-63
2022/03/25 08:38:35;;;;;;;33.08;18.45;;;13.00;54.50;;;;;;5006621;28;20121;-63
2022/03/25 08:41:01;;;;;;;40.10;20.13;;;13.00;54.40;;;;;;5008578;28;20102;-63
2022/03/25 08:43:26;;;;;;;33.45;19.17;;;13.00;54.30;;;;;;4993143;28;20162;-63
2022/03/25 08:45:53;;;;;;;32.53;18.98;;;13.10;54.60;;;;;;4997050;28;20043;-63
2022/03/25 08:48:18;;;;;;;34.75;19.55;;;13.10;54.60;;;;;;4991237;28;20034;-63
2022/03/25 08:50:44;;;;;;;39.75;20.85;;;13.20;54.70;;;;;;5008553;28;20034;-63
2022/03/25 08:53:10;;;;;;;36.85;20.60;;;13.20;54.80;;;;;;5007985;28;20108;-63
2022/03/25 08:55:35;;;;;;;33.70;20.95;;;13.30;55.00;;;;;;5008639;28;20030;-63
2022/03/25 08:58:01;;;;;;;37.17;20.85;;;13.40;55.20;;;;;;5007728;28;20042;-64
2022/03/25 09:00:26;;;;;;;39.92;22.02;;;13.40;55.20;;;;;;5007630;28;20026;-63
2022/03/25 09:02:52;;;;;;;38.70;21.00;;;13.50;55.20;;;;;;5007963;28;20030;-63
2022/03/25 09:05:17;;;;;;;39.22;23.17;;;13.50;55.40;;;;;;5007176;28;20398;-62
2022/03/25 09:07:44;;;;;;;40.65;21.35;;;13.60;55.40;;;;;;5007836;28;20054;-64
2022/03/25 09:10:12;;;;;;;39.00;21.15;;;13.70;55.50;;;;;;5007254;28;20029;-64
2022/03/25 09:12:38;;;;;;;42.15;22.08;;;13.70;55.50;;;;;;4995848;28;20092;-64
2022/03/25 09:15:06;;;;;;;42.45;22.77;;;13.80;55.50;;;;;;5001394;28;20033;-64
2022/03/25 09:17:31;;;;;;;41.60;23.10;;;13.90;55.60;;;;;;5007816;28;20046;-64
2022/03/25 09:19:57;;;;;;;36.33;21.90;;;14.00;55.60;;;;;;4999134;28;20390;-64
2022/03/25 09:22:22;;;;;;;35.35;20.98;;;14.00;55.90;;;;;;4998949;28;20441;-63
2022/03/25 09:24:48;;;;;;;35.72;21.80;;;14.10;56.00;;;;;;4999562;28;20025;-63
2022/03/25 09:27:14;;;;;;;41.83;23.85;;;14.20;56.10;;;;;;5005617;28;20450;-63
2022/03/25 09:29:39;;;;;;;37.97;21.52;;;14.30;55.90;;;;;;5008129;28;20120;-63
2022/03/25 09:32:05;;;;;;;40.50;20.55;;;14.30;55.70;;;;;;5000587;28;20030;-64
2022/03/25 09:37:15;;;;;;;35.53;20.23;;;14.50;55.90;;;;;;5001170;28;20069;-64
2022/03/25 09:39:41;;;;;;;39.22;22.23;;;14.50;56.50;;;;;;4997951;28;20501;-64
2022/03/25 09:42:07;;;;;;;40.05;23.05;;;14.60;56.00;;;;;;5006013;28;20025;-64
2022/03/25 09:44:34;;;;;;;35.55;22.25;;;14.70;55.30;;;;;;5003542;28;20433;-64
2022/03/25 09:47:02;;;;;;;39.38;24.42;;;14.70;55.10;;;;;;5000244;28;20049;-64
2022/03/25 09:49:28;;;;;;;37.03;21.25;;;14.70;55.40;;;;;;5003939;28;20034;-63
2022/03/25 09:51:53;;;;;;;43.83;21.30;;;14.80;55.30;;;;;;4995235;28;20030;-63
2022/03/25 09:54:20;;;;;;;40.33;22.83;;;14.90;55.00;;;;;;4999857;28;20029;-63
2022/03/25 09:56:45;;;;;;;39.13;23.00;;;14.90;55.00;;;;;;5012450;28;20027;-64
2022/03/25 09:59:16;;;;;;;37.53;22.38;;;15.00;54.90;;;;;;5004668;28;20112;-64
2022/03/25 10:01:42;;;;;;;44.70;23.08;;;15.10;54.90;;;;;;5009076;28;20072;-64
2022/03/25 10:04:07;;;;;;;39.30;21.50;;;15.20;54.90;;;;;;5008775;28;20467;-64
2022/03/25 10:06:45;;;;;;;44.75;23.27;;;15.20;54.90;;;;;;4997899;28;20038;-64
2022/03/25 10:09:21;;;;;;;37.15;20.88;;;15.30;54.90;;;;;;5000123;28;20054;-64
2022/03/25 10:11:46;;;;;;;41.70;22.95;;;15.40;54.80;;;;;;5007799;28;20082;-64
2022/03/25 10:14:15;;;;;;;41.17;21.65;;;15.40;54.50;;;;;;5004897;28;20414;-64
2022/03/25 10:16:42;;;;;;;41.50;23.73;;;15.50;54.70;;;;;;5012549;28;20497;-63
2022/03/25 10:19:11;;;;;;;33.15;20.60;;;15.60;54.60;;;;;;5005419;28;20512;-63
2022/03/25 10:21:57;;;;;;;40.33;24.00;;;15.70;54.60;;;;;;5007801;28;20050;-64
2022/03/25 10:24:35;;;;;;;37.47;23.83;;;15.70;54.30;;;;;;5011034;28;20029;-63
2022/03/25 10:27:06;;;;;;;35.90;22.33;;;15.80;54.20;;;;;;5011008;28;20038;-63
2022/03/25 10:29:32;;;;;;;38.40;24.55;;;15.80;54.20;;;;;;5007066;28;20077;-64
2022/03/25 10:32:13;;;;;;;35.50;20.88;;;15.80;54.20;;;;;;5004385;28;20030;-63
2022/03/25 10:34:40;;;;;;;39.25;23.45;;;15.90;54.00;;;;;;4993327;28;20026;-62
2022/03/25 10:37:10;;;;;;;39.28;24.52;;;16.00;54.00;;;;;;5006639;28;20034;-62
2022/03/25 10:39:35;;;;;;;39.53;24.63;;;16.00;53.80;;;;;;5009831;28;20409;-64
2022/03/25 10:42:04;;;;;;;37.28;22.85;;;16.10;53.70;;;;;;5007551;28;20030;-66
2022/03/25 10:44:34;;;;;;;35.33;23.48;;;16.10;53.50;;;;;;5002247;28;20034;-65
2022/03/25 10:46:59;;;;;;;40.97;22.65;;;16.20;53.70;;;;;;5003314;28;20026;-65
2022/03/25 10:49:37;;;;;;;38.22;24.65;;;16.20;53.40;;;;;;5007350;28;20037;-65
2022/03/25 10:52:04;;;;;;;35.65;21.77;;;16.30;53.60;;;;;;5007390;28;20517;-66
2022/03/25 10:54:30;;;;;;;37.25;23.33;;;16.40;53.50;;;;;;5011705;28;20026;-65
2022/03/25 10:56:59;;;;;;;37.47;23.30;;;16.50;53.30;;;;;;5007257;28;20034;-65
2022/03/25 10:59:30;;;;;;;32.40;21.23;;;16.60;53.10;;;;;;5002932;28;20402;-65
2022/03/25 11:01:59;;;;;;;32.13;19.35;;;16.60;53.00;;;;;;4996079;28;20029;-65
2022/03/25 11:04:26;;;;;;;32.15;18.50;;;16.70;52.80;;;;;;5001895;28;20018;-65
2022/03/25 11:06:53;;;;;;;33.90;21.33;;;16.70;53.00;;;;;;4998707;28;20521;-65
2022/03/25 11:09:20;;;;;;;36.60;22.33;;;16.80;53.00;;;;;;5007709;28;20037;-65
2022/03/25 11:11:48;;;;;;;37.15;22.88;;;16.80;52.60;;;;;;5004993;28;20469;-64
2022/03/25 11:14:14;;;;;;;39.03;22.08;;;16.80;52.70;;;;;;5001027;28;20044;-64
2022/03/25 11:17:07;;;;;;;33.03;20.35;;;16.90;53.20;;;;;;5008273;28;20053;-64
2022/03/25 11:19:37;;;;;;;34.58;21.48;;;17.00;52.80;;;;;;4998274;28;20030;-64
2022/03/25 11:22:05;;;;;;;35.20;20.63;;;17.00;52.50;;;;;;4999850;28;20401;-65
2022/03/25 11:24:42;;;;;;;34.13;19.70;;;17.00;53.00;;;;;;5003916;28;20026;-65
2022/03/25 11:27:31;;;;;;;33.15;19.95;;;17.00;52.70;;;;;;5009970;28;20400;-65
2022/03/25 11:30:03;;;;;;;34.33;20.17;;;17.00;52.70;;;;;;5002368;28;20085;-65
2022/03/25 11:32:29;;;;;;;32.80;18.38;;;17.10;52.60;;;;;;4996574;28;20616;-65
2022/03/25 11:34:54;;;;;;;31.90;21.25;;;17.10;52.70;;;;;;4998418;28;20113;-64
2022/03/25 11:37:22;;;;;;;42.67;19.77;;;17.20;52.50;;;;;;4996097;28;20113;-65
2022/03/25 11:40:08;;;;;;;33.20;19.08;;;17.20;52.50;;;;;;4997365;28;20037;-65
2022/03/25 11:42:44;;;;;;;32.70;21.00;;;17.30;52.80;;;;;;5006817;28;20505;-65
2022/03/25 11:45:22;;;;;;;34.15;20.10;;;17.30;51.90;;;;;;5007614;28;20034;-65
2022/03/25 11:47:59;;;;;;;35.75;20.48;;;17.20;51.80;;;;;;4998975;28;20521;-65
2022/03/25 11:50:34;;;;;;;31.83;19.73;;;17.20;52.20;;;;;;5010649;28;20354;-65
2022/03/25 11:53:12;;;;;;;34.72;20.10;;;17.20;52.10;;;;;;5014824;28;20025;-65
2022/03/25 11:55:55;;;;;;;26.80;17.48;;;17.30;52.40;;;;;;4998632;28;20095;-65
2022/03/25 11:58:21;;;;;;;27.67;18.00;;;17.40;51.90;;;;;;5005476;28;20038;-65
2022/03/25 12:00:51;;;;;;;31.52;18.17;;;17.30;52.00;;;;;;4995505;28;20030;-65
2022/03/25 12:03:17;;;;;;;31.10;18.38;;;17.40;52.00;;;;;;5008825;28;20034;-65
2022/03/25 12:06:00;;;;;;;29.77;18.02;;;17.50;52.00;;;;;;4998704;28;20034;-65
2022/03/25 12:08:32;;;;;;;26.55;16.63;;;17.60;52.20;;;;;;5002186;28;20496;-65
2022/03/25 12:11:01;;;;;;;29.85;17.45;;;17.60;52.00;;;;;;4998492;28;20041;-65
2022/03/25 12:13:53;;;;;;;27.20;18.20;;;17.70;52.30;;;;;;4997809;28;20061;-65
2022/03/25 12:16:51;;;;;;;30.48;18.05;;;17.70;51.80;;;;;;5006545;28;20454;-65
2022/03/25 12:19:26;;;;;;;30.00;17.42;;;17.80;51.80;;;;;;5002560;28;20045;-65
2022/03/25 12:21:59;;;;;;;24.80;15.90;;;17.80;51.70;;;;;;5000745;28;20029;-65
2022/03/25 12:24:26;;;;;;;24.45;16.67;;;17.90;51.70;;;;;;4992276;28;20045;-65
2022/03/25 12:27:02;;;;;;;25.73;15.68;;;17.90;51.50;;;;;;4999568;28;20026;-66
2022/03/25 12:29:33;;;;;;;28.50;15.52;;;17.90;50.80;;;;;;4997795;28;20030;-65
2022/03/25 12:32:02;;;;;;;22.35;14.23;;;17.90;51.00;;;;;;5005958;28;20030;-65
2022/03/25 12:34:53;;;;;;;21.60;13.18;;;18.00;50.70;;;;;;4993509;28;20317;-65
2022/03/25 12:37:29;;;;;;;25.30;13.57;;;18.00;50.70;;;;;;4997338;28;20033;-64
2022/03/25 12:39:55;;;;;;;24.60;13.02;;;18.00;50.70;;;;;;4990706;28;20113;-65